sensor_id;sensor_type;location;lat;lon;timestamp;pressure;altitude;pressure_sealevel;temperature;humidity
5609;BME280;2826;51.354;9.588;2023-07-29T00:01:10;97526.69;;;20.74;99.22
5609;BME280;2826;51.354;9.588;2023-07-29T00:03:38;97525.28;;;20.70;100.00
5609;BME280;2826;51.354;9.588;2023-07-29T00:06:04;97525.28;;;20.70;100.00
5609;BME280;2826;51.354;9.588;2023-07-29T00:08:31;97524.19;;;20.72;100.00
5609;BME280;2826;51.354;9.588;2023-07-29T00:10:57;97523.34;;;20.72;100.00
5609;BME280;2826;51.354;9.588;2023-07-29T00:13:23;97520.28;;;20.76;100.00
5609;BME280;2826;51.354;9.588;2023-07-29T00:15:53;97521.09;;;20.77;100.00
5609;BME280;2826;51.354;9.588;2023-07-29T00:18:19;97514.03;;;20.78;100.00
5609;BME280;2826;51.354;9.588;2023-07-29T00:20:47;97515.56;;;20.80;99.94
5609;BME280;2826;51.354;9.588;2023-07-29T00:23:14;97517.34;;;20.80;99.87
5609;BME280;2826;51.354;9.588;2023-07-29T00:25:41;97518.31;;;20.79;99.90
5609;BME280;2826;51.354;9.588;2023-07-29T00:28:07;97509.31;;;20.81;99.57
5609;BME280;2826;51.354;9.588;2023-07-29T00:30:34;97505.28;;;20.77;99.75
5609;BME280;2826;51.354;9.588;2023-07-29T00:33:01;97505.69;;;20.82;99.38
5609;BME280;2826;51.354;9.588;2023-07-29T00:35:27;97511.94;;;20.81;99.53
5609;BME280;2826;51.354;9.588;2023-07-29T00:37:55;97519.84;;;20.81;99.36
5609;BME280;2826;51.354;9.588;2023-07-29T00:40:22;97517.22;;;20.81;99.26
5609;BME280;2826;51.354;9.588;2023-07-29T00:42:49;97523.31;;;20.82;99.27
5609;BME280;2826;51.354;9.588;2023-07-29T00:45:18;97506.41;;;20.84;98.92
5609;BME280;2826;51.354;9.588;2023-07-29T00:47:45;97505.56;;;20.84;98.66
5609;BME280;2826;51.354;9.588;2023-07-29T00:50:13;97501.41;;;20.91;97.90
5609;BME280;2826;51.354;9.588;2023-07-29T00:52:41;97493.91;;;20.86;97.83
5609;BME280;2826;51.354;9.588;2023-07-29T00:55:09;97494.47;;;20.80;98.21
5609;BME280;2826;51.354;9.588;2023-07-29T00:57:36;97506.25;;;20.86;97.41
5609;BME280;2826;51.354;9.588;2023-07-29T01:00:04;97491.13;;;20.78;98.51
5609;BME280;2826;51.354;9.588;2023-07-29T01:02:31;97497.25;;;20.79;98.55
5609;BME280;2826;51.354;9.588;2023-07-29T01:04:59;97491.00;;;20.80;98.33
5609;BME280;2826;51.354;9.588;2023-07-29T01:07:31;97492.69;;;20.81;98.40
5609;BME280;2826;51.354;9.588;2023-07-29T01:10:02;97483.53;;;20.75;98.57
5609;BME280;2826;51.354;9.588;2023-07-29T01:12:42;97473.41;;;20.70;97.85
5609;BME280;2826;51.354;9.588;2023-07-29T01:15:16;97488.50;;;20.78;98.11
5609;BME280;2826;51.354;9.588;2023-07-29T01:17:56;97488.22;;;20.81;97.82
5609;BME280;2826;51.354;9.588;2023-07-29T01:20:25;97480.31;;;20.81;97.92
5609;BME280;2826;51.354;9.588;2023-07-29T01:22:52;97476.19;;;20.79;97.80
5609;BME280;2826;51.354;9.588;2023-07-29T01:25:20;97478.41;;;20.73;97.79
5609;BME280;2826;51.354;9.588;2023-07-29T01:27:48;97484.81;;;20.71;97.75
5609;BME280;2826;51.354;9.588;2023-07-29T01:30:17;97478.69;;;20.70;97.79
5609;BME280;2826;51.354;9.588;2023-07-29T01:32:51;97469.28;;;20.68;98.17
5609;BME280;2826;51.354;9.588;2023-07-29T01:35:23;97472.75;;;20.68;97.92
5609;BME280;2826;51.354;9.588;2023-07-29T01:37:55;97465.00;;;20.57;97.94
5609;BME280;2826;51.354;9.588;2023-07-29T01:40:24;97484.34;;;20.75;97.20
5609;BME280;2826;51.354;9.588;2023-07-29T01:42:53;97467.91;;;20.63;97.26
5609;BME280;2826;51.354;9.588;2023-07-29T01:45:23;97488.81;;;20.75;96.79
5609;BME280;2826;51.354;9.588;2023-07-29T01:47:49;97493.81;;;20.68;97.20
5609;BME280;2826;51.354;9.588;2023-07-29T01:50:16;97494.09;;;20.65;97.65
5609;BME280;2826;51.354;9.588;2023-07-29T01:52:44;97490.47;;;20.66;97.65
5609;BME280;2826;51.354;9.588;2023-07-29T01:55:10;97492.31;;;20.66;97.99
5609;BME280;2826;51.354;9.588;2023-07-29T01:57:38;97486.72;;;20.69;97.32
5609;BME280;2826;51.354;9.588;2023-07-29T02:00:06;97487.97;;;20.65;97.77
5609;BME280;2826;51.354;9.588;2023-07-29T02:02:39;97489.94;;;20.62;97.79
5609;BME280;2826;51.354;9.588;2023-07-29T02:05:07;97485.34;;;20.65;97.03
5609;BME280;2826;51.354;9.588;2023-07-29T02:07:33;97486.31;;;20.63;97.37
5609;BME280;2826;51.354;9.588;2023-07-29T02:10:00;97487.72;;;20.58;97.53
5609;BME280;2826;51.354;9.588;2023-07-29T02:12:27;97489.94;;;20.53;98.12
5609;BME280;2826;51.354;9.588;2023-07-29T02:14:55;97482.06;;;20.53;98.14
5609;BME280;2826;51.354;9.588;2023-07-29T02:17:21;97479.28;;;20.54;98.63
5609;BME280;2826;51.354;9.588;2023-07-29T02:19:48;97477.63;;;20.53;98.46
5609;BME280;2826;51.354;9.588;2023-07-29T02:22:16;97467.94;;;20.54;98.36
5609;BME280;2826;51.354;9.588;2023-07-29T02:24:44;97471.38;;;20.54;98.51
5609;BME280;2826;51.354;9.588;2023-07-29T02:27:11;97463.63;;;20.53;98.84
5609;BME280;2826;51.354;9.588;2023-07-29T02:29:37;97465.03;;;20.47;99.06
5609;BME280;2826;51.354;9.588;2023-07-29T02:32:05;97462.81;;;20.52;98.86
5609;BME280;2826;51.354;9.588;2023-07-29T02:34:32;97456.13;;;20.58;98.15
5609;BME280;2826;51.354;9.588;2023-07-29T02:36:59;97446.03;;;20.53;98.05
5609;BME280;2826;51.354;9.588;2023-07-29T02:39:25;97455.44;;;20.56;98.36
5609;BME280;2826;51.354;9.588;2023-07-29T02:41:52;97458.91;;;20.56;98.71
5609;BME280;2826;51.354;9.588;2023-07-29T02:44:20;97455.72;;;20.53;99.10
5609;BME280;2826;51.354;9.588;2023-07-29T02:46:47;97455.03;;;20.50;98.88
5609;BME280;2826;51.354;9.588;2023-07-29T02:49:15;97441.16;;;20.48;99.40
5609;BME280;2826;51.354;9.588;2023-07-29T02:51:41;97445.63;;;20.48;99.13
5609;BME280;2826;51.354;9.588;2023-07-29T02:54:08;97442.00;;;20.49;99.04
5609;BME280;2826;51.354;9.588;2023-07-29T02:56:35;97441.16;;;20.48;99.04
5609;BME280;2826;51.354;9.588;2023-07-29T02:59:01;97435.91;;;20.48;99.36
5609;BME280;2826;51.354;9.588;2023-07-29T03:01:29;97431.34;;;20.50;98.79
5609;BME280;2826;51.354;9.588;2023-07-29T03:03:56;97425.81;;;20.54;99.37
5609;BME280;2826;51.354;9.588;2023-07-29T03:06:24;97422.06;;;20.56;98.80
5609;BME280;2826;51.354;9.588;2023-07-29T03:08:51;97422.84;;;20.57;99.49
5609;BME280;2826;51.354;9.588;2023-07-29T03:11:17;97417.44;;;20.58;98.84
5609;BME280;2826;51.354;9.588;2023-07-29T03:13:44;97416.19;;;20.62;98.76
5609;BME280;2826;51.354;9.588;2023-07-29T03:16:12;97408.16;;;20.64;98.36
5609;BME280;2826;51.354;9.588;2023-07-29T03:18:39;97402.34;;;20.60;98.52
5609;BME280;2826;51.354;9.588;2023-07-29T03:21:07;97400.66;;;20.59;98.29
5609;BME280;2826;51.354;9.588;2023-07-29T03:23:36;97408.19;;;20.54;98.62
5609;BME280;2826;51.354;9.588;2023-07-29T03:26:04;97408.88;;;20.56;98.43
5609;BME280;2826;51.354;9.588;2023-07-29T03:28:38;97405.25;;;20.57;98.47
5609;BME280;2826;51.354;9.588;2023-07-29T03:31:04;97394.47;;;20.50;98.17
5609;BME280;2826;51.354;9.588;2023-07-29T03:33:32;97401.13;;;20.55;98.15
5609;BME280;2826;51.354;9.588;2023-07-29T03:35:59;97405.66;;;20.62;97.78
5609;BME280;2826;51.354;9.588;2023-07-29T03:38:26;97395.66;;;20.66;97.45
5609;BME280;2826;51.354;9.588;2023-07-29T03:40:54;97392.88;;;20.68;97.05
5609;BME280;2826;51.354;9.588;2023-07-29T03:43:21;97383.59;;;20.63;96.95
5609;BME280;2826;51.354;9.588;2023-07-29T03:45:48;97377.22;;;20.66;96.77
5609;BME280;2826;51.354;9.588;2023-07-29T03:48:14;97385.97;;;20.67;96.99
5609;BME280;2826;51.354;9.588;2023-07-29T03:50:41;97386.94;;;20.66;96.84
5609;BME280;2826;51.354;9.588;2023-07-29T03:53:08;97387.75;;;20.66;96.77
5609;BME280;2826;51.354;9.588;2023-07-29T03:55:35;97380.44;;;20.60;97.11
5609;BME280;2826;51.354;9.588;2023-07-29T03:58:03;97385.13;;;20.66;96.56
5609;BME280;2826;51.354;9.588;2023-07-29T04:00:30;97375.72;;;20.63;97.05
5609;BME280;2826;51.354;9.588;2023-07-29T04:02:56;97381.28;;;20.60;97.08
5609;BME280;2826;51.354;9.588;2023-07-29T04:05:23;97382.09;;;20.61;97.24
5609;BME280;2826;51.354;9.588;2023-07-29T04:07:50;97384.44;;;20.64;97.46
5609;BME280;2826;51.354;9.588;2023-07-29T04:10:16;97383.31;;;20.67;97.19
5609;BME280;2826;51.354;9.588;2023-07-29T04:12:43;97377.34;;;20.65;96.83
5609;BME280;2826;51.354;9.588;2023-07-29T04:15:11;97381.97;;;20.62;97.19
5609;BME280;2826;51.354;9.588;2023-07-29T04:17:38;97379.47;;;20.61;97.63
5609;BME280;2826;51.354;9.588;2023-07-29T04:20:05;97372.41;;;20.61;97.76
5609;BME280;2826;51.354;9.588;2023-07-29T04:22:33;97380.44;;;20.60;97.83
5609;BME280;2826;51.354;9.588;2023-07-29T04:25:00;97380.31;;;20.61;97.72
5609;BME280;2826;51.354;9.588;2023-07-29T04:27:26;97375.84;;;20.62;98.01
5609;BME280;2826;51.354;9.588;2023-07-29T04:29:53;97380.31;;;20.61;98.17
5609;BME280;2826;51.354;9.588;2023-07-29T04:32:21;97368.94;;;20.61;97.88
5609;BME280;2826;51.354;9.588;2023-07-29T04:34:47;97374.91;;;20.63;98.06
5609;BME280;2826;51.354;9.588;2023-07-29T04:37:14;97374.72;;;20.65;98.27
5609;BME280;2826;51.354;9.588;2023-07-29T04:39:41;97375.97;;;20.70;97.76
5609;BME280;2826;51.354;9.588;2023-07-29T04:42:07;97374.31;;;20.69;97.74
5609;BME280;2826;51.354;9.588;2023-07-29T04:44:34;97371.53;;;20.71;97.92
5609;BME280;2826;51.354;9.588;2023-07-29T04:47:01;97365.16;;;20.63;98.09
5609;BME280;2826;51.354;9.588;2023-07-29T04:49:29;97368.78;;;20.62;98.46
5609;BME280;2826;51.354;9.588;2023-07-29T04:52:14;97367.38;;;20.68;97.83
5609;BME280;2826;51.354;9.588;2023-07-29T04:54:41;97347.47;;;20.56;97.73
5609;BME280;2826;51.354;9.588;2023-07-29T04:57:08;97371.00;;;20.67;98.47
5609;BME280;2826;51.354;9.588;2023-07-29T04:59:34;97374.59;;;20.66;98.28
5609;BME280;2826;51.354;9.588;2023-07-29T05:02:02;97367.25;;;20.70;98.02
5609;BME280;2826;51.354;9.588;2023-07-29T05:04:30;97372.19;;;20.73;98.02
5609;BME280;2826;51.354;9.588;2023-07-29T05:06:56;97366.78;;;20.74;97.91
5609;BME280;2826;51.354;9.588;2023-07-29T05:09:23;97368.63;;;20.74;97.88
5609;BME280;2826;51.354;9.588;2023-07-29T05:11:50;97366.66;;;20.76;97.90
5609;BME280;2826;51.354;9.588;2023-07-29T05:14:17;97369.16;;;20.78;98.05
5609;BME280;2826;51.354;9.588;2023-07-29T05:16:44;97359.41;;;20.78;98.11
5609;BME280;2826;51.354;9.588;2023-07-29T05:19:11;97360.97;;;20.81;97.79
5609;BME280;2826;51.354;9.588;2023-07-29T05:21:39;97360.25;;;20.79;98.01
5609;BME280;2826;51.354;9.588;2023-07-29T05:24:06;97359.13;;;20.81;97.59
5609;BME280;2826;51.354;9.588;2023-07-29T05:26:33;97354.16;;;20.78;97.33
5609;BME280;2826;51.354;9.588;2023-07-29T05:29:00;97349.72;;;20.79;97.32
5609;BME280;2826;51.354;9.588;2023-07-29T05:31:27;97353.88;;;20.81;97.50
5609;BME280;2826;51.354;9.588;2023-07-29T05:33:54;97350.72;;;20.78;97.62
5609;BME280;2826;51.354;9.588;2023-07-29T05:36:21;97351.69;;;20.76;97.98
5609;BME280;2826;51.354;9.588;2023-07-29T05:38:50;97318.06;;;20.60;97.72
5609;BME280;2826;51.354;9.588;2023-07-29T05:41:16;97352.22;;;20.80;97.46
5609;BME280;2826;51.354;9.588;2023-07-29T05:43:43;97340.31;;;20.76;97.66
5609;BME280;2826;51.354;9.588;2023-07-29T05:46:11;97352.06;;;20.82;97.75
5609;BME280;2826;51.354;9.588;2023-07-29T05:48:37;97346.34;;;20.86;97.38
5609;BME280;2826;51.354;9.588;2023-07-29T05:51:04;97342.34;;;20.92;97.33
5609;BME280;2826;51.354;9.588;2023-07-29T05:53:32;97335.78;;;20.96;97.32
5609;BME280;2826;51.354;9.588;2023-07-29T05:56:00;97341.91;;;20.97;97.35
5609;BME280;2826;51.354;9.588;2023-07-29T05:58:28;97341.31;;;21.03;96.97
5609;BME280;2826;51.354;9.588;2023-07-29T06:00:56;97352.13;;;21.00;96.95
5609;BME280;2826;51.354;9.588;2023-07-29T06:03:23;97358.25;;;21.00;96.87
5609;BME280;2826;51.354;9.588;2023-07-29T06:05:51;97350.84;;;21.04;96.37
5609;BME280;2826;51.354;9.588;2023-07-29T06:08:18;97351.69;;;21.05;96.92
5609;BME280;2826;51.354;9.588;2023-07-29T06:10:44;97345.00;;;21.10;96.80
5609;BME280;2826;51.354;9.588;2023-07-29T06:13:12;97326.75;;;20.99;95.99
5609;BME280;2826;51.354;9.588;2023-07-29T06:15:39;97359.69;;;21.13;95.93
5609;BME280;2826;51.354;9.588;2023-07-29T06:18:06;97357.22;;;21.11;95.76
5609;BME280;2826;51.354;9.588;2023-07-29T06:20:33;97353.88;;;21.09;95.82
5609;BME280;2826;51.354;9.588;2023-07-29T06:22:59;97352.91;;;21.10;95.66
5609;BME280;2826;51.354;9.588;2023-07-29T06:25:27;97363.91;;;21.06;96.26
5609;BME280;2826;51.354;9.588;2023-07-29T06:27:54;97317.13;;;20.80;96.02
5609;BME280;2826;51.354;9.588;2023-07-29T06:30:22;97301.78;;;20.75;96.51
5609;BME280;2826;51.354;9.588;2023-07-29T06:32:48;97359.84;;;21.11;96.78
5609;BME280;2826;51.354;9.588;2023-07-29T06:35:15;97360.06;;;21.18;96.80
5609;BME280;2826;51.354;9.588;2023-07-29T06:37:42;97351.22;;;21.37;96.77
5609;BME280;2826;51.354;9.588;2023-07-29T06:40:10;97351.75;;;21.59;96.53
5609;BME280;2826;51.354;9.588;2023-07-29T06:42:36;97359.66;;;21.77;95.40
5609;BME280;2826;51.354;9.588;2023-07-29T06:45:04;97360.44;;;21.88;94.20
5609;BME280;2826;51.354;9.588;2023-07-29T06:47:32;97365.00;;;21.86;92.96
5609;BME280;2826;51.354;9.588;2023-07-29T06:49:59;97367.13;;;21.82;93.10
5609;BME280;2826;51.354;9.588;2023-07-29T06:52:26;97368.78;;;21.83;93.18
5609;BME280;2826;51.354;9.588;2023-07-29T06:54:53;97368.78;;;21.83;93.22
5609;BME280;2826;51.354;9.588;2023-07-29T06:57:19;97366.91;;;21.75;93.00
5609;BME280;2826;51.354;9.588;2023-07-29T06:59:46;97359.88;;;21.66;93.29
5609;BME280;2826;51.354;9.588;2023-07-29T07:02:13;97367.94;;;21.64;93.70
5609;BME280;2826;51.354;9.588;2023-07-29T07:04:41;97363.44;;;21.57;93.90
5609;BME280;2826;51.354;9.588;2023-07-29T07:07:08;97359.59;;;21.51;93.98
5609;BME280;2826;51.354;9.588;2023-07-29T07:09:35;97360.84;;;21.47;94.56
5609;BME280;2826;51.354;9.588;2023-07-29T07:12:01;97359.94;;;21.38;94.84
5609;BME280;2826;51.354;9.588;2023-07-29T07:14:28;97364.84;;;21.33;94.96
5609;BME280;2826;51.354;9.588;2023-07-29T07:16:55;97362.25;;;21.23;95.89
5609;BME280;2826;51.354;9.588;2023-07-29T07:19:22;97361.22;;;21.34;95.95
5609;BME280;2826;51.354;9.588;2023-07-29T07:21:50;97369.22;;;21.42;96.30
5609;BME280;2826;51.354;9.588;2023-07-29T07:24:16;97357.84;;;21.41;96.47
5609;BME280;2826;51.354;9.588;2023-07-29T07:26:43;97369.09;;;21.62;96.35
5609;BME280;2826;51.354;9.588;2023-07-29T07:29:10;97358.31;;;21.73;95.67
5609;BME280;2826;51.354;9.588;2023-07-29T07:31:36;97362.84;;;21.81;95.30
5609;BME280;2826;51.354;9.588;2023-07-29T07:34:03;97361.72;;;21.84;94.42
5609;BME280;2826;51.354;9.588;2023-07-29T07:36:30;97368.78;;;21.83;93.84
5609;BME280;2826;51.354;9.588;2023-07-29T07:38:58;97370.97;;;21.88;93.72
5609;BME280;2826;51.354;9.588;2023-07-29T07:41:24;97375.41;;;21.87;93.80
5609;BME280;2826;51.354;9.588;2023-07-29T07:43:51;97377.38;;;21.85;93.74
5609;BME280;2826;51.354;9.588;2023-07-29T07:46:18;97380.00;;;21.85;93.19
5609;BME280;2826;51.354;9.588;2023-07-29T07:48:45;97374.44;;;21.70;93.81
5609;BME280;2826;51.354;9.588;2023-07-29T07:51:12;97377.28;;;21.59;94.05
5609;BME280;2826;51.354;9.588;2023-07-29T07:53:39;97383.63;;;21.48;94.96
5609;BME280;2826;51.354;9.588;2023-07-29T07:56:08;97379.31;;;21.47;94.56
5609;BME280;2826;51.354;9.588;2023-07-29T07:58:34;97378.47;;;21.46;95.34
5609;BME280;2826;51.354;9.588;2023-07-29T08:01:02;97369.34;;;21.40;95.83
5609;BME280;2826;51.354;9.588;2023-07-29T08:03:28;97370.44;;;21.48;96.40
5609;BME280;2826;51.354;9.588;2023-07-29T08:05:55;97365.31;;;21.64;96.36
5609;BME280;2826;51.354;9.588;2023-07-29T08:08:22;97376.56;;;21.85;95.63
5609;BME280;2826;51.354;9.588;2023-07-29T08:10:49;97381.75;;;21.95;94.28
5609;BME280;2826;51.354;9.588;2023-07-29T08:13:17;97385.94;;;22.05;93.35
5609;BME280;2826;51.354;9.588;2023-07-29T08:15:46;97367.84;;;22.11;92.73
5609;BME280;2826;51.354;9.588;2023-07-29T08:18:12;97372.34;;;22.18;91.64
5609;BME280;2826;51.354;9.588;2023-07-29T08:20:39;97375.91;;;22.36;92.35
5609;BME280;2826;51.354;9.588;2023-07-29T08:23:06;97368.25;;;22.51;91.49
5609;BME280;2826;51.354;9.588;2023-07-29T08:25:33;97373.75;;;22.57;90.74
5609;BME280;2826;51.354;9.588;2023-07-29T08:28:00;97385.00;;;22.60;89.36
5609;BME280;2826;51.354;9.588;2023-07-29T08:30:28;97386.97;;;22.57;88.91
5609;BME280;2826;51.354;9.588;2023-07-29T08:32:54;97380.47;;;22.52;89.97
5609;BME280;2826;51.354;9.588;2023-07-29T08:35:21;97387.97;;;22.56;89.81
5609;BME280;2826;51.354;9.588;2023-07-29T08:37:48;97385.16;;;22.58;89.78
5609;BME280;2826;51.354;9.588;2023-07-29T08:40:14;97391.47;;;22.65;89.12
5609;BME280;2826;51.354;9.588;2023-07-29T08:42:41;97383.06;;;22.70;88.35
5609;BME280;2826;51.354;9.588;2023-07-29T08:45:11;97383.78;;;22.80;88.06
5609;BME280;2826;51.354;9.588;2023-07-29T08:47:40;97381.66;;;22.84;88.19
5609;BME280;2826;51.354;9.588;2023-07-29T08:50:07;97389.94;;;22.89;87.82
5609;BME280;2826;51.354;9.588;2023-07-29T08:52:34;97385.78;;;22.87;86.50
5609;BME280;2826;51.354;9.588;2023-07-29T08:55:01;97386.53;;;22.70;86.50
5609;BME280;2826;51.354;9.588;2023-07-29T08:57:29;97385.88;;;22.68;86.93
5609;BME280;2826;51.354;9.588;2023-07-29T08:59:57;97385.66;;;22.62;87.73
5609;BME280;2826;51.354;9.588;2023-07-29T09:02:25;97391.19;;;22.50;87.77
5609;BME280;2826;51.354;9.588;2023-07-29T09:04:53;97390.13;;;22.61;88.02
5609;BME280;2826;51.354;9.588;2023-07-29T09:07:20;97393.59;;;22.62;88.50
5609;BME280;2826;51.354;9.588;2023-07-29T09:09:47;97390.19;;;22.78;87.84
5609;BME280;2826;51.354;9.588;2023-07-29T09:12:14;97389.44;;;22.94;87.81
5609;BME280;2826;51.354;9.588;2023-07-29T09:14:41;97387.41;;;23.31;87.27
5609;BME280;2826;51.354;9.588;2023-07-29T09:17:08;97391.63;;;23.75;85.23
5609;BME280;2826;51.354;9.588;2023-07-29T09:19:35;97377.09;;;24.04;83.10
5609;BME280;2826;51.354;9.588;2023-07-29T09:22:04;97386.53;;;24.23;80.68
5609;BME280;2826;51.354;9.588;2023-07-29T09:24:30;97381.56;;;24.37;78.46
5609;BME280;2826;51.354;9.588;2023-07-29T09:26:58;97375.88;;;24.57;78.24
5609;BME280;2826;51.354;9.588;2023-07-29T09:29:28;97377.47;;;24.74;77.55
5609;BME280;2826;51.354;9.588;2023-07-29T09:34:41;97373.94;;;24.90;75.91
5609;BME280;2826;51.354;9.588;2023-07-29T09:37:15;97385.53;;;24.98;74.71
5609;BME280;2826;51.354;9.588;2023-07-29T09:39:44;97389.53;;;25.25;72.73
5609;BME280;2826;51.354;9.588;2023-07-29T09:42:11;97381.19;;;25.68;72.56
5609;BME280;2826;51.354;9.588;2023-07-29T09:44:38;97380.25;;;26.00;72.34
5609;BME280;2826;51.354;9.588;2023-07-29T09:47:05;97381.09;;;26.15;68.52
5609;BME280;2826;51.354;9.588;2023-07-29T09:49:35;97367.78;;;26.00;68.73
5609;BME280;2826;51.354;9.588;2023-07-29T09:52:03;97381.47;;;25.74;68.99
5609;BME280;2826;51.354;9.588;2023-07-29T09:54:33;97369.00;;;25.51;70.09
5609;BME280;2826;51.354;9.588;2023-07-29T09:57:00;97375.34;;;25.41;69.29
5609;BME280;2826;51.354;9.588;2023-07-29T09:59:27;97368.38;;;25.40;68.60
5609;BME280;2826;51.354;9.588;2023-07-29T10:01:53;97368.91;;;25.36;68.61
5609;BME280;2826;51.354;9.588;2023-07-29T10:04:21;97376.72;;;25.37;68.24
5609;BME280;2826;51.354;9.588;2023-07-29T10:06:48;97370.91;;;25.34;68.29
5609;BME280;2826;51.354;9.588;2023-07-29T10:09:16;97370.94;;;25.25;68.65
5609;BME280;2826;51.354;9.588;2023-07-29T10:11:45;97356.44;;;25.13;67.53
5609;BME280;2826;51.354;9.588;2023-07-29T10:14:12;97369.16;;;25.49;68.35
5609;BME280;2826;51.354;9.588;2023-07-29T10:16:40;97366.97;;;26.00;66.51
5609;BME280;2826;51.354;9.588;2023-07-29T10:19:07;97371.00;;;26.34;65.46
5609;BME280;2826;51.354;9.588;2023-07-29T10:21:38;97359.75;;;26.62;59.67
5609;BME280;2826;51.354;9.588;2023-07-29T10:24:07;97359.63;;;26.55;59.38
5609;BME280;2826;51.354;9.588;2023-07-29T10:26:36;97360.81;;;26.68;60.56
5609;BME280;2826;51.354;9.588;2023-07-29T10:29:07;97357.97;;;26.99;61.31
5609;BME280;2826;51.354;9.588;2023-07-29T10:31:35;97359.09;;;27.27;58.64
5609;BME280;2826;51.354;9.588;2023-07-29T10:34:04;97367.97;;;27.34;57.13
5609;BME280;2826;51.354;9.588;2023-07-29T10:36:31;97328.53;;;26.86;56.76
5609;BME280;2826;51.354;9.588;2023-07-29T10:38:58;97356.41;;;26.75;55.75
5609;BME280;2826;51.354;9.588;2023-07-29T10:41:56;97350.66;;;26.56;55.96
5609;BME280;2826;51.354;9.588;2023-07-29T10:44:47;97352.66;;;26.54;56.55
5609;BME280;2826;51.354;9.588;2023-07-29T10:47:16;97347.63;;;26.59;57.54
5609;BME280;2826;51.354;9.588;2023-07-29T10:49:44;97348.28;;;26.46;55.91
5609;BME280;2826;51.354;9.588;2023-07-29T10:52:13;97348.13;;;26.25;55.31
5609;BME280;2826;51.354;9.588;2023-07-29T10:54:44;97353.50;;;26.01;56.09
5609;BME280;2826;51.354;9.588;2023-07-29T10:57:33;97347.97;;;25.73;57.95
5609;BME280;2826;51.354;9.588;2023-07-29T11:00:01;97350.56;;;25.57;58.44
5609;BME280;2826;51.354;9.588;2023-07-29T11:02:31;97354.13;;;25.41;58.77
5609;BME280;2826;51.354;9.588;2023-07-29T11:04:59;97353.69;;;25.53;60.63
5609;BME280;2826;51.354;9.588;2023-07-29T11:07:31;97327.38;;;25.43;59.56
5609;BME280;2826;51.354;9.588;2023-07-29T11:10:00;97355.84;;;25.81;59.45
5609;BME280;2826;51.354;9.588;2023-07-29T11:12:41;97350.63;;;25.88;57.50
5609;BME280;2826;51.354;9.588;2023-07-29T11:15:14;97347.22;;;26.02;57.47
5609;BME280;2826;51.354;9.588;2023-07-29T11:17:42;97347.03;;;26.19;56.97
5609;BME280;2826;51.354;9.588;2023-07-29T11:20:10;97338.88;;;26.20;58.04
5609;BME280;2826;51.354;9.588;2023-07-29T11:22:37;97321.47;;;26.18;56.32
5609;BME280;2826;51.354;9.588;2023-07-29T11:25:07;97334.97;;;26.61;53.74
5609;BME280;2826;51.354;9.588;2023-07-29T11:27:34;97328.53;;;26.86;52.11
5609;BME280;2826;51.354;9.588;2023-07-29T11:30:04;97342.41;;;27.18;52.46
5609;BME280;2826;51.354;9.588;2023-07-29T11:32:32;97350.16;;;27.13;51.87
5609;BME280;2826;51.354;9.588;2023-07-29T11:35:01;97352.28;;;27.03;51.28
5609;BME280;2826;51.354;9.588;2023-07-29T11:37:29;97355.22;;;26.78;51.52
5609;BME280;2826;51.354;9.588;2023-07-29T11:39:56;97369.72;;;26.60;51.44
5609;BME280;2826;51.354;9.588;2023-07-29T11:42:24;97362.22;;;26.33;51.65
5609;BME280;2826;51.354;9.588;2023-07-29T11:44:50;97326.50;;;25.74;52.09
5609;BME280;2826;51.354;9.588;2023-07-29T11:47:19;97366.50;;;25.96;51.49
5609;BME280;2826;51.354;9.588;2023-07-29T11:49:45;97365.25;;;25.83;52.10
5609;BME280;2826;51.354;9.588;2023-07-29T11:52:12;97364.97;;;25.78;50.80
5609;BME280;2826;51.354;9.588;2023-07-29T11:54:39;97373.31;;;25.75;49.71
5609;BME280;2826;51.354;9.588;2023-07-29T11:57:06;97369.88;;;25.90;48.90
5609;BME280;2826;51.354;9.588;2023-07-29T11:59:34;97321.88;;;25.76;49.33
5609;BME280;2826;51.354;9.588;2023-07-29T12:02:05;97362.94;;;26.42;48.95
5609;BME280;2826;51.354;9.588;2023-07-29T12:04:36;97364.41;;;26.75;48.96
5609;BME280;2826;51.354;9.588;2023-07-29T12:07:04;97366.03;;;27.06;47.89
5609;BME280;2826;51.354;9.588;2023-07-29T12:09:33;97373.41;;;27.26;48.14
5609;BME280;2826;51.354;9.588;2023-07-29T12:12:00;97369.34;;;27.30;47.34
5609;BME280;2826;51.354;9.588;2023-07-29T12:14:27;97366.69;;;27.30;45.68
5609;BME280;2826;51.354;9.588;2023-07-29T12:16:54;97365.13;;;27.36;45.45
5609;BME280;2826;51.354;9.588;2023-07-29T12:21:56;97360.13;;;27.48;43.41
5609;BME280;2826;51.354;9.588;2023-07-29T12:24:23;97361.69;;;27.42;43.46
5609;BME280;2826;51.354;9.588;2023-07-29T12:26:50;97368.56;;;27.30;44.56
5609;BME280;2826;51.354;9.588;2023-07-29T12:29:18;97380.97;;;27.07;44.26
5609;BME280;2826;51.354;9.588;2023-07-29T12:31:46;97377.78;;;26.82;44.37
5609;BME280;2826;51.354;9.588;2023-07-29T12:34:17;97376.84;;;26.59;45.27
5609;BME280;2826;51.354;9.588;2023-07-29T12:36:46;97385.09;;;26.34;45.88
5609;BME280;2826;51.354;9.588;2023-07-29T12:39:18;97384.84;;;26.29;46.25
5609;BME280;2826;51.354;9.588;2023-07-29T12:41:45;97389.41;;;26.35;46.85
5609;BME280;2826;51.354;9.588;2023-07-29T12:44:12;97386.00;;;26.42;45.92
5609;BME280;2826;51.354;9.588;2023-07-29T12:46:39;97385.28;;;26.33;45.01
5609;BME280;2826;51.354;9.588;2023-07-29T12:49:06;97385.22;;;26.41;45.87
5609;BME280;2826;51.354;9.588;2023-07-29T12:51:33;97394.38;;;26.39;45.15
5609;BME280;2826;51.354;9.588;2023-07-29T12:54:00;97388.78;;;26.33;45.00
5609;BME280;2826;51.354;9.588;2023-07-29T12:56:28;97393.31;;;26.25;45.51
5609;BME280;2826;51.354;9.588;2023-07-29T12:58:56;97393.09;;;26.11;45.35
5609;BME280;2826;51.354;9.588;2023-07-29T13:01:23;97400.38;;;26.17;44.96
5609;BME280;2826;51.354;9.588;2023-07-29T13:03:49;97398.47;;;26.26;46.12
5609;BME280;2826;51.354;9.588;2023-07-29T13:06:16;97392.50;;;26.24;45.98
5609;BME280;2826;51.354;9.588;2023-07-29T13:08:44;97396.19;;;26.38;46.44
5609;BME280;2826;51.354;9.588;2023-07-29T13:11:11;97389.06;;;26.39;45.83
5609;BME280;2826;51.354;9.588;2023-07-29T13:13:39;97381.72;;;26.56;45.51
5609;BME280;2826;51.354;9.588;2023-07-29T13:16:06;97385.66;;;26.45;45.30
5609;BME280;2826;51.354;9.588;2023-07-29T13:18:33;97390.81;;;26.46;45.75
5609;BME280;2826;51.354;9.588;2023-07-29T13:21:00;97380.00;;;26.63;45.66
5609;BME280;2826;51.354;9.588;2023-07-29T13:23:27;97378.53;;;26.60;44.94
5609;BME280;2826;51.354;9.588;2023-07-29T13:25:55;97382.47;;;26.50;44.64
5609;BME280;2826;51.354;9.588;2023-07-29T13:28:21;97374.59;;;26.56;44.36
5609;BME280;2826;51.354;9.588;2023-07-29T13:30:49;97341.56;;;26.35;44.84